Time;durP1;ratioP1;P1;durP2;ratioP2;P2;SDS_P1;SDS_P2;PMS_P1;PMS_P2;Temp;Humidity;BMP_temperature;BMP_pressure;BME280_temperature;BME280_humidity;BME280_pressure;Samples;Min_cycle;Max_cycle;Signal;HPM_P1;HPM_P2
2024/01/07 00:01:37;;;;;;;11.63;6.50;;;;;;;;;;5038030;28;20491;-80
2024/01/07 00:04:04;;;;;;;13.00;6.80;;;;;;;;;;5038615;28;20467;-78
2024/01/07 00:06:31;;;;;;;9.83;6.43;;;;;;;;;;5037735;28;20551;-80
2024/01/07 00:08:57;;;;;;;10.63;7.07;;;;;;;;;;5038454;28;20472;-80
2024/01/07 00:11:24;;;;;;;12.57;7.20;;;;;;;;;;5037566;28;20548;-80
2024/01/07 00:13:50;;;;;;;9.13;6.00;;;;;;;;;;5037559;28;20441;-80
2024/01/07 00:16:17;;;;;;;10.30;6.20;;;;;;;;;;5037009;28;20548;-81
2024/01/07 00:18:44;;;;;;;10.73;7.83;;;;;;;;;;5037303;28;20439;-80
2024/01/07 00:21:11;;;;;;;10.10;7.30;;;;;;;;;;5037675;28;20535;-80
2024/01/07 00:23:37;;;;;;;12.57;7.47;;;;;;;;;;5037369;28;20592;-79
2024/01/07 00:26:04;;;;;;;8.83;6.73;;;;;;;;;;5037301;28;20549;-80
2024/01/07 00:28:30;;;;;;;10.07;6.90;;;;;;;;;;5037537;28;20532;-79
2024/01/07 00:30:56;;;;;;;9.57;6.47;;;;;;;;;;5037356;28;20445;-80
2024/01/07 00:33:23;;;;;;;10.37;7.43;;;;;;;;;;5037910;28;20492;-79
2024/01/07 00:35:51;;;;;;;13.80;7.63;;;;;;;;;;5037388;28;20919;-81
2024/01/07 00:38:17;;;;;;;10.43;6.50;;;;;;;;;;5038320;28;20520;-79
2024/01/07 00:40:44;;;;;;;8.93;6.20;;;;;;;;;;5037963;28;20528;-79
2024/01/07 00:43:10;;;;;;;9.60;6.30;;;;;;;;;;5037415;28;20497;-79
2024/01/07 00:45:37;;;;;;;9.07;6.37;;;;;;;;;;5037065;28;21027;-79
2024/01/07 00:48:03;;;;;;;9.37;6.80;;;;;;;;;;5037658;28;20479;-79
2024/01/07 00:50:30;;;;;;;8.90;6.53;;;;;;;;;;5036896;28;20879;-79
2024/01/07 00:52:57;;;;;;;8.60;5.80;;;;;;;;;;5036927;28;20559;-79
2024/01/07 00:55:24;;;;;;;7.53;4.93;;;;;;;;;;5036971;28;20541;-79
2024/01/07 00:57:50;;;;;;;5.53;5.03;;;;;;;;;;5036751;28;20884;-81
2024/01/07 01:00:17;;;;;;;9.33;5.67;;;;;;;;;;5037124;28;20524;-79
2024/01/07 01:02:44;;;;;;;9.30;6.20;;;;;;;;;;5036764;28;20563;-80
2024/01/07 01:05:11;;;;;;;10.83;6.00;;;;;;;;;;5037133;28;20495;-79
2024/01/07 01:07:38;;;;;;;8.17;5.10;;;;;;;;;;5036614;28;20551;-79
2024/01/07 01:10:06;;;;;;;8.37;5.20;;;;;;;;;;5037133;28;20784;-79
2024/01/07 01:12:33;;;;;;;9.13;5.63;;;;;;;;;;5036422;28;20536;-79
2024/01/07 01:14:59;;;;;;;7.00;5.10;;;;;;;;;;5036935;28;20552;-79
2024/01/07 01:17:26;;;;;;;6.10;5.00;;;;;;;;;;5036438;28;20523;-79
2024/01/07 01:19:52;;;;;;;9.00;5.20;;;;;;;;;;5036843;28;20473;-79
2024/01/07 01:22:18;;;;;;;8.77;5.53;;;;;;;;;;5036792;28;20489;-79
2024/01/07 01:24:45;;;;;;;7.30;4.50;;;;;;;;;;5036089;28;21053;-80
2024/01/07 01:27:15;;;;;;;8.47;5.30;;;;;;;;;;5036842;28;20468;-80
2024/01/07 01:29:41;;;;;;;7.73;4.43;;;;;;;;;;5036575;28;20447;-79
2024/01/07 01:32:08;;;;;;;6.87;5.37;;;;;;;;;;5036006;28;20559;-79
2024/01/07 01:34:34;;;;;;;7.27;4.43;;;;;;;;;;5036947;28;20555;-79
2024/01/07 01:37:00;;;;;;;8.43;4.90;;;;;;;;;;5036196;28;20532;-79
2024/01/07 01:39:27;;;;;;;5.90;3.97;;;;;;;;;;5036407;28;20539;-79
2024/01/07 01:41:53;;;;;;;8.30;5.00;;;;;;;;;;5036496;28;20536;-79
2024/01/07 01:44:21;;;;;;;7.40;4.37;;;;;;;;;;5036204;28;20465;-79
2024/01/07 01:46:48;;;;;;;6.87;5.07;;;;;;;;;;5035591;28;20562;-79
2024/01/07 01:49:15;;;;;;;5.93;4.33;;;;;;;;;;5036544;28;20528;-79
2024/01/07 01:51:41;;;;;;;6.70;4.20;;;;;;;;;;5036229;28;20903;-79
2024/01/07 01:54:08;;;;;;;4.20;3.73;;;;;;;;;;5036754;28;20488;-79
2024/01/07 01:56:35;;;;;;;5.70;4.30;;;;;;;;;;5036697;28;20897;-79
2024/01/07 01:59:01;;;;;;;6.70;4.57;;;;;;;;;;5036390;28;20547;-79
2024/01/07 02:01:29;;;;;;;5.07;4.60;;;;;;;;;;5035409;28;20568;-79
2024/01/07 02:03:55;;;;;;;5.20;4.27;;;;;;;;;;5036686;28;20527;-79
2024/01/07 02:06:22;;;;;;;4.30;3.90;;;;;;;;;;5035448;28;20659;-79
2024/01/07 02:08:49;;;;;;;7.80;4.60;;;;;;;;;;5036134;28;21009;-79
2024/01/07 02:11:16;;;;;;;7.10;4.80;;;;;;;;;;5036635;28;20468;-79
2024/01/07 02:13:43;;;;;;;6.87;5.03;;;;;;;;;;5036611;28;20819;-79
2024/01/07 02:16:09;;;;;;;6.33;5.40;;;;;;;;;;5036061;28;20552;-80
2024/01/07 02:18:37;;;;;;;6.60;4.67;;;;;;;;;;5036698;28;20524;-79
2024/01/07 02:21:04;;;;;;;7.70;5.10;;;;;;;;;;5036631;28;20504;-79
2024/01/07 02:23:30;;;;;;;7.03;3.90;;;;;;;;;;5036990;28;20508;-79
2024/01/07 02:25:58;;;;;;;7.00;5.00;;;;;;;;;;5037104;28;20899;-80
2024/01/07 02:28:25;;;;;;;12.43;4.70;;;;;;;;;;5037058;28;20930;-79
2024/01/07 02:30:51;;;;;;;5.73;5.00;;;;;;;;;;5036717;28;20966;-80
2024/01/07 02:33:17;;;;;;;6.30;5.03;;;;;;;;;;5040930;28;20527;-78
2024/01/07 02:35:44;;;;;;;8.60;4.60;;;;;;;;;;5040281;28;20978;-78
2024/01/07 02:38:10;;;;;;;7.77;4.60;;;;;;;;;;5040177;28;20500;-78
2024/01/07 02:40:37;;;;;;;5.37;4.20;;;;;;;;;;5041015;28;20536;-79
2024/01/07 02:43:05;;;;;;;6.60;4.60;;;;;;;;;;5040190;28;21045;-79
2024/01/07 02:45:31;;;;;;;6.10;4.60;;;;;;;;;;5040225;28;20520;-79
2024/01/07 02:47:58;;;;;;;5.70;5.00;;;;;;;;;;5039997;28;20572;-78
2024/01/07 02:50:24;;;;;;;7.43;4.53;;;;;;;;;;5040559;28;20476;-79
2024/01/07 02:52:50;;;;;;;5.57;4.10;;;;;;;;;;5039721;28;20461;-79
2024/01/07 02:55:17;;;;;;;5.67;4.13;;;;;;;;;;5039833;28;20491;-79
2024/01/07 02:57:43;;;;;;;7.03;4.20;;;;;;;;;;5039721;28;20926;-79
2024/01/07 03:00:12;;;;;;;4.80;3.90;;;;;;;;;;5039157;28;20547;-78
2024/01/07 03:02:38;;;;;;;5.97;3.73;;;;;;;;;;5039785;28;20479;-78
2024/01/07 03:05:05;;;;;;;3.60;3.30;;;;;;;;;;5039856;28;20560;-79
2024/01/07 03:07:31;;;;;;;5.03;3.70;;;;;;;;;;5039817;28;20512;-79
2024/01/07 03:09:58;;;;;;;4.17;3.10;;;;;;;;;;5039608;28;20857;-78
2024/01/07 03:12:24;;;;;;;3.57;3.10;;;;;;;;;;5039147;28;21098;-78
2024/01/07 03:14:51;;;;;;;3.00;2.80;;;;;;;;;;5039725;28;20529;-79
2024/01/07 03:17:18;;;;;;;3.53;3.10;;;;;;;;;;5039249;28;20838;-79
2024/01/07 03:19:45;;;;;;;4.97;3.20;;;;;;;;;;5039638;28;20548;-79
2024/01/07 03:22:11;;;;;;;3.87;3.00;;;;;;;;;;5039319;28;20575;-79
2024/01/07 03:24:37;;;;;;;3.40;2.37;;;;;;;;;;5039301;28;20520;-78
2024/01/07 03:27:03;;;;;;;5.40;2.43;;;;;;;;;;5038817;28;20572;-79
2024/01/07 03:29:29;;;;;;;6.63;3.20;;;;;;;;;;5039853;28;20763;-78
2024/01/07 03:31:56;;;;;;;4.10;3.10;;;;;;;;;;5039335;28;21069;-79
2024/01/07 03:34:24;;;;;;;4.30;2.33;;;;;;;;;;5040106;28;20547;-79
2024/01/07 03:36:50;;;;;;;5.50;2.30;;;;;;;;;;5038948;28;20562;-79
2024/01/07 03:39:17;;;;;;;4.37;2.40;;;;;;;;;;5039897;28;20452;-79
2024/01/07 03:41:43;;;;;;;9.07;2.80;;;;;;;;;;5038901;28;20515;-79
2024/01/07 03:44:10;;;;;;;2.70;2.50;;;;;;;;;;5038304;28;20560;-79
2024/01/07 03:46:37;;;;;;;3.13;2.83;;;;;;;;;;5039410;28;20504;-78
2024/01/07 03:49:03;;;;;;;3.37;2.90;;;;;;;;;;5040078;28;20949;-78
2024/01/07 03:51:31;;;;;;;2.90;2.40;;;;;;;;;;5040273;28;20492;-79
2024/01/07 03:53:57;;;;;;;4.07;2.90;;;;;;;;;;5039590;28;20492;-78
2024/01/07 03:56:24;;;;;;;4.23;3.30;;;;;;;;;;5039799;28;20529;-78
2024/01/07 03:58:50;;;;;;;3.37;2.70;;;;;;;;;;5039138;28;20472;-79
2024/01/07 04:01:17;;;;;;;5.70;2.43;;;;;;;;;;5038801;28;20495;-79
2024/01/07 04:03:43;;;;;;;3.83;2.50;;;;;;;;;;5039565;28;20520;-78
2024/01/07 04:06:10;;;;;;;2.00;1.80;;;;;;;;;;5038394;28;20492;-78
2024/01/07 04:08:37;;;;;;;2.73;2.53;;;;;;;;;;5038825;28;21025;-78
2024/01/07 04:11:04;;;;;;;6.50;2.63;;;;;;;;;;5038608;28;20520;-79
2024/01/07 04:13:30;;;;;;;3.10;1.90;;;;;;;;;;5039821;28;20472;-79
2024/01/07 04:15:57;;;;;;;6.43;2.40;;;;;;;;;;5038712;28;20539;-79
2024/01/07 04:18:23;;;;;;;5.27;2.10;;;;;;;;;;5039025;28;20468;-79
2024/01/07 04:20:49;;;;;;;5.83;2.73;;;;;;;;;;5038579;28;20693;-80
2024/01/07 04:23:16;;;;;;;3.60;2.40;;;;;;;;;;5038932;28;20931;-78
2024/01/07 04:25:45;;;;;;;3.07;2.30;;;;;;;;;;5039116;28;20544;-78
2024/01/07 04:28:11;;;;;;;3.20;2.20;;;;;;;;;;5039692;28;20998;-78
2024/01/07 04:30:37;;;;;;;2.87;2.37;;;;;;;;;;5038405;28;20938;-78
2024/01/07 04:33:04;;;;;;;3.07;2.03;;;;;;;;;;5038477;28;20556;-79
2024/01/07 04:35:30;;;;;;;2.67;2.23;;;;;;;;;;5039604;28;20488;-78
2024/01/07 04:37:57;;;;;;;2.27;1.60;;;;;;;;;;5039075;28;20484;-78
2024/01/07 04:40:23;;;;;;;2.50;1.90;;;;;;;;;;5039402;28;20484;-78
2024/01/07 04:42:51;;;;;;;1.67;1.57;;;;;;;;;;5038520;28;20950;-78
2024/01/07 04:45:17;;;;;;;3.60;1.90;;;;;;;;;;5038584;28;20896;-78
2024/01/07 04:47:44;;;;;;;1.93;1.83;;;;;;;;;;5037941;28;20572;-78
2024/01/07 04:50:11;;;;;;;8.83;2.33;;;;;;;;;;5038829;28;20512;-78
2024/01/07 04:52:37;;;;;;;5.43;2.17;;;;;;;;;;5038509;28;21036;-78
2024/01/07 04:55:04;;;;;;;2.70;1.87;;;;;;;;;;5038961;28;20507;-78
2024/01/07 04:57:30;;;;;;;2.77;1.80;;;;;;;;;;5038912;28;20896;-78
2024/01/07 04:59:58;;;;;;;3.40;1.70;;;;;;;;;;5038913;28;20531;-78
2024/01/07 05:02:24;;;;;;;2.97;2.30;;;;;;;;;;5038982;28;20560;-78
2024/01/07 05:04:51;;;;;;;1.73;1.63;;;;;;;;;;5039305;28;20497;-78
2024/01/07 05:07:18;;;;;;;2.63;1.90;;;;;;;;;;5039479;28;20560;-78
2024/01/07 05:09:44;;;;;;;4.23;2.40;;;;;;;;;;5038738;28;20468;-78
2024/01/07 05:12:10;;;;;;;2.30;1.70;;;;;;;;;;5039019;28;20564;-78
2024/01/07 05:14:37;;;;;;;2.87;2.13;;;;;;;;;;5040059;28;20488;-78
2024/01/07 05:17:05;;;;;;;2.90;1.93;;;;;;;;;;5038871;28;20476;-79
2024/01/07 05:19:31;;;;;;;4.57;1.80;;;;;;;;;;5039681;28;20959;-78
2024/01/07 05:21:59;;;;;;;2.80;2.30;;;;;;;;;;5039047;28;20567;-78
2024/01/07 05:24:25;;;;;;;2.50;1.63;;;;;;;;;;5038986;28;20998;-78
2024/01/07 05:26:51;;;;;;;2.50;1.70;;;;;;;;;;5038791;28;20488;-78
2024/01/07 05:29:18;;;;;;;2.53;2.10;;;;;;;;;;5039490;28;20523;-78
2024/01/07 05:31:44;;;;;;;2.27;2.07;;;;;;;;;;5038846;28;20532;-78
2024/01/07 05:34:12;;;;;;;2.70;1.70;;;;;;;;;;5039457;28;20492;-78
2024/01/07 05:36:38;;;;;;;3.07;1.87;;;;;;;;;;5039193;28;20468;-78
2024/01/07 05:39:06;;;;;;;3.67;2.30;;;;;;;;;;5039224;28;20516;-79
2024/01/07 05:41:32;;;;;;;5.57;2.40;;;;;;;;;;5039274;28;20828;-78
2024/01/07 05:43:59;;;;;;;5.53;2.40;;;;;;;;;;5039815;28;20487;-78
2024/01/07 05:46:25;;;;;;;3.87;1.77;;;;;;;;;;5039628;28;20468;-78
2024/01/07 05:48:52;;;;;;;2.77;1.97;;;;;;;;;;5039420;28;20938;-78
2024/01/07 05:51:19;;;;;;;2.37;2.17;;;;;;;;;;5039529;28;20480;-78
2024/01/07 05:53:46;;;;;;;3.53;1.97;;;;;;;;;;5039238;28;20982;-79
2024/01/07 05:56:12;;;;;;;3.37;1.83;;;;;;;;;;5038719;28;20909;-79
2024/01/07 05:58:39;;;;;;;2.90;2.03;;;;;;;;;;5038719;28;20824;-78
2024/01/07 06:01:07;;;;;;;3.10;2.20;;;;;;;;;;5039051;28;21026;-78
2024/01/07 06:03:33;;;;;;;1.87;1.77;;;;;;;;;;5039417;28;20453;-78
2024/01/07 06:06:00;;;;;;;2.97;1.93;;;;;;;;;;5039206;28;20515;-79
2024/01/07 06:08:27;;;;;;;1.90;1.73;;;;;;;;;;5042376;28;21068;-78
2024/01/07 06:10:54;;;;;;;2.63;2.23;;;;;;;;;;5042728;28;20516;-80
2024/01/07 06:13:20;;;;;;;2.60;1.50;;;;;;;;;;5042495;28;20527;-79
2024/01/07 06:15:47;;;;;;;2.83;2.20;;;;;;;;;;5042595;28;20499;-78
2024/01/07 06:18:13;;;;;;;4.03;2.13;;;;;;;;;;5041873;28;20539;-78
2024/01/07 06:20:39;;;;;;;1.63;1.53;;;;;;;;;;5043050;28;20440;-78
2024/01/07 06:23:06;;;;;;;3.27;2.00;;;;;;;;;;5042400;28;20508;-78
2024/01/07 06:25:33;;;;;;;2.40;1.97;;;;;;;;;;5042211;28;20467;-78
2024/01/07 06:28:00;;;;;;;2.70;2.07;;;;;;;;;;5042774;28;20567;-78
2024/01/07 06:30:26;;;;;;;6.03;2.20;;;;;;;;;;5042902;28;20479;-78
2024/01/07 06:32:53;;;;;;;3.70;2.20;;;;;;;;;;5042094;28;20492;-78
2024/01/07 06:35:20;;;;;;;5.57;2.30;;;;;;;;;;5042813;28;20511;-78
2024/01/07 06:37:46;;;;;;;7.43;2.80;;;;;;;;;;5042200;28;20563;-78
2024/01/07 06:40:12;;;;;;;2.73;2.50;;;;;;;;;;5043381;28;20509;-78
2024/01/07 06:42:40;;;;;;;2.53;1.97;;;;;;;;;;5042440;28;20567;-78
2024/01/07 06:45:07;;;;;;;3.03;1.83;;;;;;;;;;5043306;28;20985;-78
2024/01/07 06:47:34;;;;;;;2.50;2.30;;;;;;;;;;5043066;28;20492;-78
2024/01/07 06:50:00;;;;;;;4.43;2.77;;;;;;;;;;5042032;28;20491;-78
2024/01/07 06:52:27;;;;;;;3.03;2.60;;;;;;;;;;5042463;28;20479;-80
2024/01/07 06:54:53;;;;;;;2.70;2.00;;;;;;;;;;5043481;28;20568;-78
2024/01/07 06:57:20;;;;;;;4.50;2.43;;;;;;;;;;5043475;28;20501;-78
2024/01/07 06:59:47;;;;;;;4.10;2.60;;;;;;;;;;5043125;28;20480;-78
2024/01/07 07:02:14;;;;;;;2.23;2.00;;;;;;;;;;5042270;28;20496;-79
2024/01/07 07:04:40;;;;;;;4.00;2.70;;;;;;;;;;5042801;28;20480;-79
2024/01/07 07:07:07;;;;;;;4.20;2.87;;;;;;;;;;5042666;28;20493;-78
2024/01/07 07:09:34;;;;;;;3.00;2.00;;;;;;;;;;5042799;28;20571;-78
2024/01/07 07:12:00;;;;;;;2.50;1.97;;;;;;;;;;5041872;28;20528;-78
2024/01/07 07:14:27;;;;;;;4.10;3.47;;;;;;;;;;5042108;28;20503;-78
2024/01/07 07:16:54;;;;;;;2.53;2.17;;;;;;;;;;5042576;28;20480;-78
2024/01/07 07:19:21;;;;;;;2.30;2.10;;;;;;;;;;5042028;28;20528;-78
2024/01/07 07:21:47;;;;;;;12.10;2.37;;;;;;;;;;5042650;28;20497;-78
2024/01/07 07:24:14;;;;;;;3.53;2.20;;;;;;;;;;5041952;28;20528;-78
2024/01/07 07:26:40;;;;;;;6.40;2.40;;;;;;;;;;5042673;28;20900;-79
2024/01/07 07:29:09;;;;;;;3.00;1.57;;;;;;;;;;5042972;28;20856;-78
2024/01/07 07:31:35;;;;;;;2.97;1.80;;;;;;;;;;5041693;28;20557;-78
2024/01/07 07:34:03;;;;;;;2.60;1.83;;;;;;;;;;5041980;28;20652;-78
2024/01/07 07:36:30;;;;;;;5.50;2.20;;;;;;;;;;5041822;28;20469;-79
2024/01/07 07:38:56;;;;;;;2.30;1.80;;;;;;;;;;5042223;28;20475;-79
2024/01/07 07:41:22;;;;;;;2.27;1.73;;;;;;;;;;5041373;28;20503;-79
2024/01/07 07:43:49;;;;;;;3.33;1.90;;;;;;;;;;5041811;28;20480;-79
2024/01/07 07:46:16;;;;;;;4.07;1.90;;;;;;;;;;5042271;28;20918;-79
2024/01/07 07:48:42;;;;;;;2.23;1.80;;;;;;;;;;5041430;28;20485;-78
2024/01/07 07:51:10;;;;;;;2.27;1.50;;;;;;;;;;5041539;28;20535;-78
2024/01/07 07:53:38;;;;;;;2.57;1.83;;;;;;;;;;5041528;28;20483;-78
2024/01/07 07:56:05;;;;;;;3.40;2.33;;;;;;;;;;5040933;28;20492;-79
2024/01/07 07:58:32;;;;;;;3.20;1.87;;;;;;;;;;5041038;28;20481;-78
2024/01/07 08:00:58;;;;;;;1.97;1.63;;;;;;;;;;5041046;28;20501;-79
2024/01/07 08:03:25;;;;;;;5.87;1.97;;;;;;;;;;5041646;28;20448;-78
2024/01/07 08:05:51;;;;;;;4.53;2.40;;;;;;;;;;5040803;28;20496;-79
2024/01/07 08:08:19;;;;;;;2.40;2.20;;;;;;;;;;5041998;28;20567;-78
2024/01/07 08:10:45;;;;;;;4.93;2.13;;;;;;;;;;5041846;28;20487;-78
2024/01/07 08:13:12;;;;;;;6.83;3.00;;;;;;;;;;5041684;28;20489;-78
2024/01/07 08:15:38;;;;;;;2.40;2.20;;;;;;;;;;5036129;28;20997;-80
2024/01/07 08:18:05;;;;;;;9.60;2.83;;;;;;;;;;5034747;28;20551;-81
2024/01/07 08:20:32;;;;;;;5.10;2.90;;;;;;;;;;5040081;28;20465;-80
2024/01/07 08:22:58;;;;;;;2.83;2.47;;;;;;;;;;5042689;28;20488;-78
2024/01/07 08:25:26;;;;;;;5.00;2.70;;;;;;;;;;5043247;28;20465;-78
2024/01/07 08:27:53;;;;;;;2.40;1.87;;;;;;;;;;5043435;28;20539;-78
2024/01/07 08:30:19;;;;;;;5.87;2.20;;;;;;;;;;5043419;28;20508;-78
2024/01/07 08:32:45;;;;;;;3.93;2.50;;;;;;;;;;5042217;28;20500;-79
2024/01/07 08:35:12;;;;;;;2.13;1.87;;;;;;;;;;5043081;28;20499;-78
2024/01/07 08:37:38;;;;;;;5.47;2.30;;;;;;;;;;5043111;28;20868;-78
2024/01/07 08:40:09;;;;;;;2.70;1.87;;;;;;;;;;5043012;28;20476;-78
2024/01/07 08:42:37;;;;;;;2.43;1.80;;;;;;;;;;5042576;28;20472;-78
2024/01/07 08:45:04;;;;;;;2.97;2.50;;;;;;;;;;5042371;28;20508;-78
2024/01/07 08:47:31;;;;;;;2.33;2.03;;;;;;;;;;5043637;28;21010;-78
2024/01/07 08:49:57;;;;;;;3.57;2.03;;;;;;;;;;5043527;28;21080;-78
2024/01/07 08:52:24;;;;;;;4.00;2.07;;;;;;;;;;5043442;28;20484;-78
2024/01/07 08:54:50;;;;;;;5.30;1.73;;;;;;;;;;5043485;28;20495;-78
2024/01/07 08:57:17;;;;;;;2.40;2.10;;;;;;;;;;5042975;28;20504;-79
2024/01/07 08:59:45;;;;;;;2.30;1.93;;;;;;;;;;5042323;28;20479;-78
2024/01/07 09:02:11;;;;;;;4.50;2.37;;;;;;;;;;5043613;28;20484;-78
2024/01/07 09:04:37;;;;;;;4.63;2.40;;;;;;;;;;5043279;28;20488;-78
2024/01/07 09:07:04;;;;;;;5.57;2.37;;;;;;;;;;5042939;28;20477;-78
2024/01/07 09:09:30;;;;;;;6.20;2.60;;;;;;;;;;5043282;28;20509;-78
2024/01/07 09:11:59;;;;;;;8.60;4.23;;;;;;;;;;5042555;28;20503;-78
2024/01/07 09:14:25;;;;;;;4.13;2.47;;;;;;;;;;5042821;28;20472;-78
2024/01/07 09:16:53;;;;;;;5.03;2.80;;;;;;;;;;5042934;28;20472;-79
2024/01/07 09:19:20;;;;;;;3.03;2.40;;;;;;;;;;5043294;28;20440;-78
2024/01/07 09:21:46;;;;;;;4.33;3.50;;;;;;;;;;5042941;28;20489;-78
2024/01/07 09:24:13;;;;;;;7.33;3.63;;;;;;;;;;5042790;28;20489;-78
2024/01/07 09:26:39;;;;;;;6.00;4.30;;;;;;;;;;5042504;28;20883;-78
2024/01/07 09:29:05;;;;;;;6.00;3.93;;;;;;;;;;5042813;28;20503;-78
2024/01/07 09:31:32;;;;;;;6.10;3.60;;;;;;;;;;5042157;28;20507;-79
2024/01/07 09:34:02;;;;;;;5.40;3.37;;;;;;;;;;5042425;28;20955;-78
2024/01/07 09:36:28;;;;;;;5.63;3.43;;;;;;;;;;5041736;28;20487;-78
2024/01/07 09:38:54;;;;;;;6.17;3.57;;;;;;;;;;5042619;28;20473;-78
2024/01/07 09:41:21;;;;;;;4.33;3.47;;;;;;;;;;5043427;28;20469;-76
2024/01/07 09:43:47;;;;;;;5.83;4.23;;;;;;;;;;5042815;28;20528;-80
2024/01/07 09:46:14;;;;;;;4.03;3.47;;;;;;;;;;5042516;28;20492;-78
2024/01/07 09:48:41;;;;;;;8.90;4.13;;;;;;;;;;5043898;28;20485;-78
2024/01/07 09:51:10;;;;;;;6.90;4.43;;;;;;;;;;5044242;28;20565;-77
2024/01/07 09:53:39;;;;;;;6.77;4.10;;;;;;;;;;5045483;28;20451;-77
2024/01/07 09:56:08;;;;;;;6.03;4.43;;;;;;;;;;5046284;28;20484;-78
2024/01/07 09:58:35;;;;;;;6.33;4.20;;;;;;;;;;5046638;28;20488;-79
2024/01/07 10:01:01;;;;;;;6.50;4.20;;;;;;;;;;5045553;28;20531;-78
2024/01/07 10:03:28;;;;;;;7.30;4.53;;;;;;;;;;5046094;28;20805;-78
2024/01/07 10:05:54;;;;;;;7.23;4.80;;;;;;;;;;5045393;28;21028;-78
2024/01/07 10:08:22;;;;;;;6.03;4.50;;;;;;;;;;5042111;28;20476;-78
2024/01/07 10:10:49;;;;;;;11.20;5.23;;;;;;;;;;5036590;28;20544;-78
2024/01/07 10:13:16;;;;;;;8.30;4.90;;;;;;;;;;5036827;28;20997;-78
2024/01/07 10:15:42;;;;;;;9.07;4.80;;;;;;;;;;5036981;28;20547;-78
2024/01/07 10:18:09;;;;;;;7.30;4.20;;;;;;;;;;5037188;28;20547;-78
2024/01/07 10:20:36;;;;;;;8.63;4.83;;;;;;;;;;5045561;28;20448;-78
2024/01/07 10:23:03;;;;;;;12.90;4.87;;;;;;;;;;5045506;28;20464;-78
2024/01/07 10:25:31;;;;;;;5.30;4.47;;;;;;;;;;5045567;28;20461;-78
2024/01/07 10:27:59;;;;;;;10.57;4.83;;;;;;;;;;5045495;28;20555;-78
2024/01/07 10:30:26;;;;;;;5.57;4.67;;;;;;;;;;5045987;28;20515;-77
2024/01/07 10:32:56;;;;;;;9.00;5.07;;;;;;;;;;5043964;28;20946;-78
2024/01/07 10:35:23;;;;;;;10.30;5.00;;;;;;;;;;5041985;28;20544;-78
2024/01/07 10:37:49;;;;;;;7.40;4.73;;;;;;;;;;5043410;28;20493;-79
2024/01/07 10:40:16;;;;;;;6.63;4.47;;;;;;;;;;5040835;28;20905;-77
2024/01/07 10:42:45;;;;;;;9.67;4.90;;;;;;;;;;5046179;28;20437;-77
2024/01/07 10:45:11;;;;;;;7.03;4.47;;;;;;;;;;5045147;28;20472;-78
2024/01/07 10:47:40;;;;;;;5.40;4.20;;;;;;;;;;5046558;28;20463;-77
2024/01/07 10:50:07;;;;;;;6.30;3.83;;;;;;;;;;5046662;28;20508;-77
2024/01/07 10:52:33;;;;;;;9.60;5.07;;;;;;;;;;5047431;28;20492;-77
2024/01/07 10:55:04;;;;;;;6.43;4.50;;;;;;;;;;5048384;28;20895;-79
2024/01/07 10:57:35;;;;;;;6.17;4.80;;;;;;;;;;5046540;28;20472;-77
2024/01/07 11:00:06;;;;;;;10.27;4.57;;;;;;;;;;5046539;28;20480;-77
2024/01/07 11:02:33;;;;;;;8.07;5.17;;;;;;;;;;5046994;28;20496;-77
2024/01/07 11:05:04;;;;;;;5.80;4.90;;;;;;;;;;5043623;28;20493;-77
2024/01/07 11:07:37;;;;;;;6.17;4.30;;;;;;;;;;5042075;28;20479;-77
2024/01/07 11:10:06;;;;;;;8.27;4.93;;;;;;;;;;5042047;28;20503;-77
2024/01/07 11:12:33;;;;;;;12.23;4.87;;;;;;;;;;5042551;28;20469;-77
2024/01/07 11:15:00;;;;;;;16.67;5.13;;;;;;;;;;5041545;28;20543;-77
2024/01/07 11:17:45;;;;;;;7.20;4.90;;;;;;;;;;5047126;28;20469;-77
2024/01/07 11:20:15;;;;;;;7.53;4.60;;;;;;;;;;5048376;28;20428;-77
2024/01/07 11:22:41;;;;;;;5.30;3.80;;;;;;;;;;5047862;28;20449;-77
2024/01/07 11:25:30;;;;;;;5.90;4.43;;;;;;;;;;5045834;28;21016;-77
2024/01/07 11:27:56;;;;;;;11.30;4.17;;;;;;;;;;5046342;28;20457;-78
2024/01/07 11:30:23;;;;;;;7.00;4.83;;;;;;;;;;5045526;28;20512;-79
2024/01/07 11:32:57;;;;;;;7.57;4.20;;;;;;;;;;5046171;28;20447;-77
2024/01/07 11:35:46;;;;;;;6.50;4.40;;;;;;;;;;5046028;28;20460;-77
2024/01/07 11:38:13;;;;;;;10.30;4.87;;;;;;;;;;5045721;28;20471;-77
2024/01/07 11:40:39;;;;;;;6.50;3.80;;;;;;;;;;5046646;28;20496;-77
2024/01/07 11:43:06;;;;;;;9.73;4.57;;;;;;;;;;5047791;28;20465;-77
2024/01/07 11:45:32;;;;;;;5.63;4.23;;;;;;;;;;5047876;28;20504;-77
2024/01/07 11:48:00;;;;;;;6.70;3.50;;;;;;;;;;5047802;28;20447;-77
2024/01/07 11:50:28;;;;;;;7.80;4.70;;;;;;;;;;5045267;28;20515;-77
2024/01/07 11:52:53;;;;;;;10.33;5.80;;;;;;;;;;5046121;28;20452;-77
2024/01/07 11:55:20;;;;;;;6.00;4.03;;;;;;;;;;5045959;28;20491;-77
2024/01/07 11:57:47;;;;;;;7.73;4.50;;;;;;;;;;5045445;28;20202;-79
2024/01/07 12:00:14;;;;;;;4.93;3.83;;;;;;;;;;5043744;28;20872;-79
2024/01/07 12:02:40;;;;;;;5.47;3.87;;;;;;;;;;5043360;28;20443;-77
2024/01/07 12:05:09;;;;;;;5.97;3.70;;;;;;;;;;5042634;28;20496;-79
2024/01/07 12:07:36;;;;;;;6.20;3.80;;;;;;;;;;5042144;28;20520;-79
2024/01/07 12:10:03;;;;;;;7.20;4.37;;;;;;;;;;5042855;28;20485;-79
2024/01/07 12:12:30;;;;;;;5.37;3.40;;;;;;;;;;5041749;28;21017;-79
2024/01/07 12:14:57;;;;;;;9.10;4.10;;;;;;;;;;5042459;28;20497;-80
2024/01/07 12:17:23;;;;;;;6.80;4.23;;;;;;;;;;5043406;28;20465;-79
2024/01/07 12:19:51;;;;;;;8.37;3.67;;;;;;;;;;5042708;28;20465;-80
2024/01/07 12:22:18;;;;;;;6.37;4.10;;;;;;;;;;5042243;28;20998;-80
2024/01/07 12:24:45;;;;;;;5.13;3.40;;;;;;;;;;5042855;28;20564;-79
2024/01/07 12:27:13;;;;;;;4.73;3.53;;;;;;;;;;5042210;28;20475;-79
2024/01/07 12:29:40;;;;;;;5.10;3.50;;;;;;;;;;5042390;28;20511;-79
2024/01/07 12:32:09;;;;;;;9.67;3.73;;;;;;;;;;5042733;28;20500;-79
2024/01/07 12:34:37;;;;;;;4.40;3.70;;;;;;;;;;5042341;28;20568;-79
2024/01/07 12:37:03;;;;;;;6.03;4.00;;;;;;;;;;5040463;28;20519;-79
2024/01/07 12:39:31;;;;;;;4.93;4.43;;;;;;;;;;5043152;28;20476;-79
2024/01/07 12:41:57;;;;;;;6.03;3.87;;;;;;;;;;5041562;28;20471;-79
2024/01/07 12:44:27;;;;;;;7.57;4.83;;;;;;;;;;5041702;28;20493;-77
2024/01/07 12:46:54;;;;;;;6.80;4.37;;;;;;;;;;5042719;28;20986;-79
2024/01/07 12:49:22;;;;;;;5.83;4.00;;;;;;;;;;5042273;28;20473;-79
2024/01/07 12:51:48;;;;;;;5.70;4.13;;;;;;;;;;5042095;28;20465;-79
2024/01/07 12:54:16;;;;;;;6.27;4.90;;;;;;;;;;5042540;28;20512;-77
2024/01/07 12:56:44;;;;;;;8.10;5.00;;;;;;;;;;5041667;28;20479;-79
2024/01/07 12:59:10;;;;;;;9.40;5.50;;;;;;;;;;5041974;28;20491;-79
2024/01/07 13:01:37;;;;;;;8.00;4.53;;;;;;;;;;5042534;28;21000;-79
2024/01/07 13:04:03;;;;;;;7.20;3.90;;;;;;;;;;5042543;28;20473;-79
2024/01/07 13:06:30;;;;;;;9.97;5.33;;;;;;;;;;5041746;28;20493;-78
2024/01/07 13:08:56;;;;;;;5.00;3.97;;;;;;;;;;5041280;28;20476;-79
2024/01/07 13:11:23;;;;;;;4.47;4.00;;;;;;;;;;5042135;28;20507;-78
2024/01/07 13:13:51;;;;;;;6.50;4.00;;;;;;;;;;5041724;28;20860;-78
2024/01/07 13:16:18;;;;;;;7.97;4.97;;;;;;;;;;5041302;28;20505;-78
2024/01/07 13:18:45;;;;;;;5.13;4.40;;;;;;;;;;5042781;28;20449;-78
2024/01/07 13:21:12;;;;;;;6.87;4.47;;;;;;;;;;5042556;28;20952;-78
2024/01/07 13:23:38;;;;;;;6.30;5.10;;;;;;;;;;5042578;28;20451;-78
2024/01/07 13:26:05;;;;;;;8.93;4.43;;;;;;;;;;5041845;28;20882;-78
2024/01/07 13:28:32;;;;;;;5.77;3.60;;;;;;;;;;5042677;28;20496;-79
2024/01/07 13:31:00;;;;;;;4.40;3.70;;;;;;;;;;5041658;28;20473;-78
2024/01/07 13:33:27;;;;;;;6.10;4.40;;;;;;;;;;5041768;28;20469;-78
2024/01/07 13:35:53;;;;;;;5.30;3.73;;;;;;;;;;5041341;28;20500;-78
2024/01/07 13:38:20;;;;;;;6.30;4.10;;;;;;;;;;5042408;28;20471;-78
2024/01/07 13:40:46;;;;;;;5.70;3.43;;;;;;;;;;5041483;28;20501;-79
2024/01/07 13:43:13;;;;;;;4.30;3.40;;;;;;;;;;5042287;28;20994;-78
2024/01/07 13:45:40;;;;;;;6.10;3.77;;;;;;;;;;5041880;28;20907;-79
2024/01/07 13:48:08;;;;;;;4.10;3.30;;;;;;;;;;5043357;28;20518;-78
2024/01/07 13:50:35;;;;;;;6.63;3.90;;;;;;;;;;5041694;28;20491;-78
2024/01/07 13:53:02;;;;;;;4.50;3.70;;;;;;;;;;5041847;28;20572;-78
2024/01/07 13:55:28;;;;;;;3.73;3.03;;;;;;;;;;5041487;28;20475;-79
2024/01/07 13:57:55;;;;;;;7.13;4.10;;;;;;;;;;5043188;28;20469;-79
2024/01/07 14:00:21;;;;;;;5.80;3.83;;;;;;;;;;5042515;28;20927;-78
2024/01/07 14:02:48;;;;;;;6.10;3.57;;;;;;;;;;5042140;28;20935;-78
2024/01/07 14:05:16;;;;;;;5.03;3.83;;;;;;;;;;5042200;28;20469;-80
2024/01/07 14:07:43;;;;;;;5.77;4.13;;;;;;;;;;5042369;28;20476;-78
2024/01/07 14:10:10;;;;;;;4.67;3.93;;;;;;;;;;5040400;28;20534;-83
2024/01/07 14:12:37;;;;;;;6.40;3.60;;;;;;;;;;5041670;28;20465;-79
2024/01/07 14:15:04;;;;;;;4.67;3.73;;;;;;;;;;5039854;28;20468;-79
2024/01/07 14:17:30;;;;;;;4.47;4.07;;;;;;;;;;5040479;28;20990;-80
2024/01/07 14:19:56;;;;;;;4.83;3.80;;;;;;;;;;5041903;28;20492;-79
2024/01/07 14:22:24;;;;;;;4.43;3.73;;;;;;;;;;5040284;28;20495;-79
2024/01/07 14:24:51;;;;;;;5.10;4.20;;;;;;;;;;5038509;28;20529;-78
2024/01/07 14:27:18;;;;;;;6.90;4.30;;;;;;;;;;5040571;28;20500;-79
2024/01/07 14:29:45;;;;;;;5.70;5.10;;;;;;;;;;5044378;28;20966;-78
2024/01/07 14:32:12;;;;;;;5.47;3.77;;;;;;;;;;5044608;28;20472;-78
2024/01/07 14:34:39;;;;;;;6.40;4.23;;;;;;;;;;5040783;28;20465;-79
2024/01/07 14:37:05;;;;;;;5.47;4.10;;;;;;;;;;5040691;28;20477;-79
2024/01/07 14:39:33;;;;;;;4.43;3.47;;;;;;;;;;5040841;28;20518;-79
2024/01/07 14:42:00;;;;;;;9.07;3.80;;;;;;;;;;5040059;28;20507;-79